createdAt,value
2022-10-11T00:00:39.184Z,101092.56
2022-10-11T00:03:41.508Z,101090.66
2022-10-11T00:06:43.908Z,101085.97
2022-10-11T00:09:46.640Z,101083.00
2022-10-11T00:12:49.581Z,101077.19
2022-10-11T00:15:52.244Z,101080.13
2022-10-11T00:18:54.664Z,101076.81
2022-10-11T00:21:57.030Z,101073.63
2022-10-11T00:24:59.510Z,101074.63
2022-10-11T00:28:01.905Z,101074.88
2022-10-11T00:31:13.643Z,101071.28
2022-10-11T00:34:18.097Z,101073.56
2022-10-11T00:37:20.615Z,101075.75
2022-10-11T00:40:23.028Z,101072.75
2022-10-11T00:43:29.106Z,101069.13
2022-10-11T00:46:31.875Z,101059.00
2022-10-11T00:49:37.889Z,101051.81
2022-10-11T00:52:49.902Z,101061.94
2022-10-11T00:56:00.335Z,101062.03
2022-10-11T00:59:06.427Z,101062.88
2022-10-11T01:02:09.925Z,101060.28
2022-10-11T01:05:32.209Z,101062.03
2022-10-11T01:08:34.674Z,101054.69
2022-10-11T01:11:41.188Z,101055.16
2022-10-11T01:14:46.580Z,101060.22
2022-10-11T01:18:09.172Z,101049.16
2022-10-11T01:21:26.092Z,101040.31
2022-10-11T01:24:43.484Z,101045.63
2022-10-11T01:27:55.752Z,101046.28
2022-10-11T01:31:04.788Z,101050.72
2022-10-11T01:34:33.627Z,101038.78
2022-10-11T01:37:53.730Z,101043.97
2022-10-11T01:41:00.239Z,101040.50
2022-10-11T01:44:05.380Z,101045.63
2022-10-11T01:47:07.740Z,101049.94
2022-10-11T01:50:46.276Z,101043.84
2022-10-11T01:54:07.367Z,101043.25
2022-10-11T01:57:28.237Z,101045.19
2022-10-11T02:01:00.585Z,101049.72
2022-10-11T02:04:37.603Z,101049.84
2022-10-11T02:07:57.649Z,101046.56
2022-10-11T02:11:20.230Z,101051.09
2022-10-11T02:14:26.963Z,101054.06
2022-10-11T02:17:35.650Z,101054.47
2022-10-11T02:20:41.344Z,101052.06
2022-10-11T02:23:53.463Z,101045.56
2022-10-11T02:26:58.831Z,101044.59
2022-10-11T02:30:04.115Z,101056.91
2022-10-11T02:33:11.278Z,101058.38
2022-10-11T02:36:55.619Z,101053.94
2022-10-11T02:40:07.072Z,101054.94
2022-10-11T02:43:17.973Z,101054.72
2022-10-11T02:46:21.554Z,101053.16
2022-10-11T02:49:23.980Z,101054.81
2022-10-11T02:52:27.140Z,101059.94
2022-10-11T02:55:29.497Z,101052.94
2022-10-11T02:58:31.921Z,101046.22
2022-10-11T03:01:34.389Z,101053.66
2022-10-11T03:04:36.884Z,101049.69
2022-10-11T03:07:39.238Z,101057.66
2022-10-11T03:10:42.516Z,101066.31
2022-10-11T03:13:44.939Z,101056.34
2022-10-11T03:16:47.270Z,101059.72
2022-10-11T03:19:49.859Z,101061.09
2022-10-11T03:22:52.188Z,101052.81
2022-10-11T03:25:54.621Z,101056.44
2022-10-11T03:28:57.109Z,101051.41
2022-10-11T03:31:59.545Z,101054.09
2022-10-11T03:35:01.898Z,101053.38
2022-10-11T03:38:04.334Z,101060.34
2022-10-11T03:41:07.127Z,101053.63
2022-10-11T03:44:09.466Z,101065.72
2022-10-11T03:47:12.782Z,101058.06
2022-10-11T03:50:15.170Z,101062.38
2022-10-11T03:53:17.737Z,101062.41
2022-10-11T03:56:20.100Z,101062.41
2022-10-11T03:59:22.429Z,101059.38
2022-10-11T04:02:25.085Z,101060.34
2022-10-11T04:05:27.521Z,101058.59
2022-10-11T04:08:29.986Z,101067.56
2022-10-11T04:11:32.785Z,101076.78
2022-10-11T04:14:35.170Z,101069.69
2022-10-11T04:17:37.515Z,101064.94
2022-10-11T04:20:40.091Z,101061.72
2022-10-11T04:23:42.490Z,101069.75
2022-10-11T04:26:44.886Z,101063.00
2022-10-11T04:29:47.189Z,101076.91
2022-10-11T04:32:49.567Z,101070.16
2022-10-11T04:35:56.203Z,101075.06
2022-10-11T04:38:58.684Z,101075.69
2022-10-11T04:42:01.001Z,101075.13
2022-10-11T04:45:03.683Z,101073.66
2022-10-11T04:48:06.391Z,101080.72
2022-10-11T04:51:08.854Z,101076.13
2022-10-11T04:54:11.222Z,101078.06
2022-10-11T04:57:13.550Z,101082.41
2022-10-11T05:00:16.284Z,101077.63
2022-10-11T05:03:18.600Z,101074.03
2022-10-11T05:06:21.162Z,101079.34
2022-10-11T05:09:24.060Z,101075.16
2022-10-11T05:12:27.050Z,101071.75
2022-10-11T05:15:29.695Z,101075.06
2022-10-11T05:18:32.165Z,101087.81
2022-10-11T05:21:46.447Z,101083.31
2022-10-11T05:24:54.857Z,101089.16
2022-10-11T05:27:57.638Z,101094.81
2022-10-11T05:31:00.414Z,101095.28
2022-10-11T05:34:02.989Z,101104.06
2022-10-11T05:37:05.538Z,101101.03
2022-10-11T05:40:08.807Z,101100.84
2022-10-11T05:43:12.012Z,101102.69
2022-10-11T05:46:15.265Z,101101.38
2022-10-11T05:49:17.833Z,101106.41
2022-10-11T05:52:21.554Z,101101.34
2022-10-11T05:55:24.480Z,101101.94
2022-10-11T05:58:27.212Z,101105.84
2022-10-11T06:03:32.074Z,101120.66
2022-10-11T06:06:53.251Z,101114.22
2022-10-11T06:10:14.210Z,101122.59
2022-10-11T06:13:35.885Z,101119.16
2022-10-11T06:16:56.936Z,101120.28
2022-10-11T06:20:18.028Z,101133.91
2022-10-11T06:23:39.210Z,101134.91
2022-10-11T06:27:00.484Z,101135.63
2022-10-11T06:30:21.564Z,101137.13
2022-10-11T06:33:42.472Z,101151.75
2022-10-11T06:37:03.684Z,101147.19
2022-10-11T06:40:24.523Z,101143.25
2022-10-11T06:43:46.112Z,101150.19
2022-10-11T06:47:07.766Z,101151.19
2022-10-11T06:50:54.518Z,101141.44
2022-10-11T06:54:10.191Z,101145.38
2022-10-11T06:57:30.982Z,101147.84
2022-10-11T07:00:51.879Z,101145.56
2022-10-11T07:04:12.827Z,101153.78
2022-10-11T07:07:33.592Z,101154.28
2022-10-11T07:11:00.113Z,101160.03
2022-10-11T07:14:21.140Z,101165.00
2022-10-11T07:17:42.318Z,101165.13
2022-10-11T07:21:04.454Z,101173.69
2022-10-11T07:24:25.740Z,101175.84
2022-10-11T07:27:46.540Z,101175.75
2022-10-11T07:31:16.690Z,101185.59
2022-10-11T07:34:37.629Z,101184.91
2022-10-11T07:37:58.599Z,101162.72
2022-10-11T07:41:19.911Z,101169.41
2022-10-11T07:44:40.888Z,101175.72
2022-10-11T07:48:01.853Z,101176.00
2022-10-11T07:51:24.591Z,101178.06
2022-10-11T07:54:48.726Z,101176.22
2022-10-11T07:58:11.154Z,101176.84
2022-10-11T08:01:33.189Z,101175.16
2022-10-11T08:04:54.391Z,101178.69
2022-10-11T08:08:15.753Z,101184.94
2022-10-11T08:11:37.727Z,101181.75
2022-10-11T08:14:58.937Z,101183.44
2022-10-11T08:18:20.268Z,101179.88
2022-10-11T08:21:41.404Z,101174.91
2022-10-11T08:25:02.475Z,101176.81
2022-10-11T08:28:23.221Z,101180.59
2022-10-11T08:31:47.326Z,101180.63
2022-10-11T08:35:08.636Z,101175.88
2022-10-11T08:38:29.718Z,101169.06
2022-10-11T08:42:11.329Z,101170.56
2022-10-11T08:45:44.345Z,101177.91
2022-10-11T08:49:07.545Z,101183.03
2022-10-11T08:52:34.818Z,101186.22
2022-10-11T08:55:56.080Z,101177.31
2022-10-11T08:59:39.966Z,101178.94
2022-10-11T09:03:29.760Z,101187.03
2022-10-11T09:07:26.816Z,101182.63
2022-10-11T09:10:48.157Z,101188.19
2022-10-11T09:13:56.503Z,101186.44
2022-10-11T09:17:37.562Z,101169.88
2022-10-11T09:20:40.236Z,101181.81
2022-10-11T09:23:56.715Z,101180.31
2022-10-11T09:27:09.929Z,101177.88
2022-10-11T09:30:14.883Z,101186.47
2022-10-11T09:33:18.807Z,101182.13
2022-10-11T09:36:34.311Z,101186.41
2022-10-11T09:39:42.199Z,101186.31
2022-10-11T09:42:44.843Z,101173.44
2022-10-11T09:45:49.616Z,101174.31
2022-10-11T09:48:56.271Z,101176.09
2022-10-11T09:52:02.440Z,101181.56
2022-10-11T09:55:05.315Z,101185.75
2022-10-11T09:58:40.307Z,101177.16
2022-10-11T10:01:42.782Z,101174.34
2022-10-11T10:05:07.135Z,101177.47
2022-10-11T10:08:09.727Z,101174.72
2022-10-11T10:11:12.743Z,101171.44
2022-10-11T10:14:21.968Z,101171.53
2022-10-11T10:17:24.410Z,101165.78
2022-10-11T10:20:36.146Z,101165.34
2022-10-11T10:23:38.873Z,101171.66
2022-10-11T10:26:41.359Z,101164.63
2022-10-11T10:30:00.666Z,101166.19
2022-10-11T10:33:10.916Z,101168.50
2022-10-11T10:36:21.842Z,101166.25
2022-10-11T10:39:33.325Z,101168.75
2022-10-11T10:42:36.411Z,101167.47
2022-10-11T10:45:56.641Z,101159.53
2022-10-11T10:49:51.887Z,101168.44
2022-10-11T10:52:55.470Z,101167.75
2022-10-11T10:56:22.224Z,101160.88
2022-10-11T11:00:05.897Z,101161.22
2022-10-11T11:03:47.891Z,101152.34
2022-10-11T11:06:57.210Z,101157.34
2022-10-11T11:10:32.824Z,101150.69
2022-10-11T11:14:12.056Z,101151.91
2022-10-11T11:17:22.898Z,101153.31
2022-10-11T11:20:59.830Z,101153.47
2022-10-11T11:24:08.879Z,101149.19
2022-10-11T11:27:40.973Z,101150.16
2022-10-11T11:31:04.806Z,101142.91
2022-10-11T11:34:45.783Z,101142.91
2022-10-11T11:37:54.099Z,101141.75
2022-10-11T11:41:09.183Z,101144.03
2022-10-11T11:44:23.852Z,101136.19
2022-10-11T11:47:36.531Z,101132.63
2022-10-11T11:50:43.818Z,101135.78
2022-10-11T11:54:19.316Z,101145.69
2022-10-11T11:57:38.871Z,101141.94
2022-10-11T12:01:03.240Z,101134.63
2022-10-11T12:04:36.107Z,101140.66
2022-10-11T12:07:58.669Z,101136.09
2022-10-11T12:11:08.653Z,101130.75
2022-10-11T12:14:41.501Z,101128.53
2022-10-11T12:17:56.058Z,101129.13
2022-10-11T12:21:08.590Z,101122.22
2022-10-11T12:24:21.542Z,101115.88
2022-10-11T12:27:43.236Z,101121.09
2022-10-11T12:30:50.768Z,101117.78
2022-10-11T12:34:15.067Z,101125.19
2022-10-11T12:37:17.525Z,101124.56
2022-10-11T12:40:41.972Z,101121.00
2022-10-11T12:43:50.495Z,101123.41
2022-10-11T12:46:57.733Z,101126.41
2022-10-11T12:50:27.983Z,101126.38
2022-10-11T12:53:33.380Z,101130.31
2022-10-11T12:56:42.141Z,101123.59
2022-10-11T12:59:45.572Z,101126.22
2022-10-11T13:02:49.493Z,101120.47
2022-10-11T13:05:56.160Z,101118.91
2022-10-11T13:09:09.695Z,101119.94
2022-10-11T13:12:19.470Z,101124.66
2022-10-11T13:15:24.293Z,101125.69
2022-10-11T13:18:27.178Z,101123.81
2022-10-11T13:21:34.641Z,101122.13
2022-10-11T13:24:39.645Z,101124.34
2022-10-11T13:27:42.741Z,101122.34
2022-10-11T13:30:48.628Z,101118.44
2022-10-11T13:33:55.135Z,101117.38
2022-10-11T13:36:58.618Z,101122.22
2022-10-11T13:40:01.197Z,101115.28
2022-10-11T13:43:05.808Z,101112.78
2022-10-11T13:46:17.507Z,101112.03
2022-10-11T13:49:29.323Z,101119.50
2022-10-11T13:52:32.484Z,101109.66
2022-10-11T13:55:47.663Z,101116.38
2022-10-11T13:58:52.755Z,101118.28
2022-10-11T14:02:01.271Z,101112.84
2022-10-11T14:05:03.817Z,101110.66
2022-10-11T14:08:19.554Z,101112.84
2022-10-11T14:11:39.850Z,101116.59
2022-10-11T14:14:43.407Z,101114.19
2022-10-11T14:17:52.504Z,101114.09
2022-10-11T14:20:54.907Z,101114.19
2022-10-11T14:24:00.844Z,101122.50
2022-10-11T14:27:05.777Z,101124.56
2022-10-11T14:30:27.467Z,101125.19
2022-10-11T14:33:30.224Z,101118.88
2022-10-11T14:36:32.696Z,101127.97
2022-10-11T14:39:35.342Z,101127.41
2022-10-11T14:42:37.677Z,101127.72
2022-10-11T14:45:40.125Z,101132.78
2022-10-11T14:48:54.953Z,101128.28
2022-10-11T14:51:59.388Z,101131.28
2022-10-11T14:55:02.218Z,101128.28
2022-10-11T14:58:06.399Z,101132.78
2022-10-11T15:01:16.160Z,101129.44
2022-10-11T15:04:24.224Z,101129.06
2022-10-11T15:07:26.740Z,101132.91
2022-10-11T15:10:35.991Z,101128.91
2022-10-11T15:13:38.453Z,101126.31
2022-10-11T15:16:41.385Z,101130.22
2022-10-11T15:19:43.764Z,101134.94
2022-10-11T15:22:46.161Z,101134.59
2022-10-11T15:25:48.543Z,101135.03
2022-10-11T15:28:52.297Z,101140.81
2022-10-11T15:31:54.796Z,101142.47
2022-10-11T15:34:57.210Z,101143.09
2022-10-11T15:38:00.269Z,101150.16
2022-10-11T15:41:02.831Z,101141.47
2022-10-11T15:44:05.342Z,101149.16
2022-10-11T15:47:09.038Z,101148.28
2022-10-11T15:50:13.805Z,101146.59
2022-10-11T15:53:19.103Z,101151.63
2022-10-11T15:56:21.472Z,101151.25
2022-10-11T15:59:23.826Z,101152.66
2022-10-11T16:02:26.400Z,101150.97
2022-10-11T16:05:29.159Z,101156.44
2022-10-11T16:08:31.710Z,101157.00
2022-10-11T16:11:34.312Z,101165.31
2022-10-11T16:14:36.702Z,101175.97
2022-10-11T16:17:39.195Z,101177.47
2022-10-11T16:20:45.195Z,101179.41
2022-10-11T16:23:47.630Z,101183.41
2022-10-11T16:26:50.896Z,101187.69
2022-10-11T16:29:53.941Z,101188.59
2022-10-11T16:32:56.525Z,101192.28
2022-10-11T16:36:18.861Z,101194.63
2022-10-11T16:39:21.460Z,101201.13
2022-10-11T16:42:24.048Z,101197.81
2022-10-11T16:45:26.502Z,101201.69
2022-10-11T16:48:28.940Z,101199.13
2022-10-11T16:51:31.380Z,101199.06
2022-10-11T16:54:33.860Z,101199.41
2022-10-11T16:57:37.815Z,101203.72
2022-10-11T17:00:42.678Z,101200.13
2022-10-11T17:03:45.306Z,101200.06
2022-10-11T17:06:47.899Z,101200.53
2022-10-11T17:09:50.723Z,101212.50
2022-10-11T17:12:55.117Z,101211.47
2022-10-11T17:15:57.912Z,101215.41
2022-10-11T17:19:00.872Z,101214.41
2022-10-11T17:22:03.258Z,101216.75
2022-10-11T17:25:07.002Z,101225.75
2022-10-11T17:28:09.804Z,101222.03
2022-10-11T17:31:12.161Z,101220.91
2022-10-11T17:34:16.149Z,101219.69
2022-10-11T17:37:18.725Z,101218.84
2022-10-11T17:40:22.023Z,101220.44
2022-10-11T17:43:24.882Z,101222.81
2022-10-11T17:46:32.284Z,101218.31
2022-10-11T17:49:34.810Z,101218.53
2022-10-11T17:52:37.247Z,101211.44
2022-10-11T17:55:43.742Z,101221.97
2022-10-11T17:58:47.074Z,101219.63
2022-10-11T18:01:50.282Z,101226.63
2022-10-11T18:04:52.716Z,101222.19
2022-10-11T18:07:55.691Z,101230.59
2022-10-11T18:10:58.093Z,101225.13
2022-10-11T18:14:00.577Z,101224.88
2022-10-11T18:17:03.611Z,101236.66
2022-10-11T18:20:06.626Z,101233.13
2022-10-11T18:23:09.089Z,101233.28
2022-10-11T18:26:16.591Z,101243.25
2022-10-11T18:29:19.082Z,101239.88
2022-10-11T18:32:21.488Z,101241.47
2022-10-11T18:35:25.087Z,101244.22
2022-10-11T18:38:27.731Z,101243.38
2022-10-11T18:41:32.161Z,101241.63
2022-10-11T18:44:34.686Z,101237.31
2022-10-11T18:47:37.424Z,101235.88
2022-10-11T18:50:40.434Z,101237.03
2022-10-11T18:53:42.760Z,101236.88
2022-10-11T18:56:45.292Z,101231.13
2022-10-11T18:59:47.827Z,101231.00
2022-10-11T19:02:51.002Z,101230.13
2022-10-11T19:05:53.474Z,101231.50
2022-10-11T19:09:04.888Z,101227.75
2022-10-11T19:12:07.552Z,101228.16
2022-10-11T19:15:11.451Z,101229.28
2022-10-11T19:18:15.938Z,101230.22
2022-10-11T19:21:22.912Z,101232.81
2022-10-11T19:24:28.325Z,101234.19
2022-10-11T19:27:30.683Z,101239.00
2022-10-11T19:30:33.612Z,101236.16
2022-10-11T19:33:36.756Z,101242.81
2022-10-11T19:36:42.290Z,101242.69
2022-10-11T19:39:44.677Z,101238.72
2022-10-11T19:42:47.102Z,101242.16
2022-10-11T19:45:49.491Z,101240.94
2022-10-11T19:48:52.279Z,101248.44
2022-10-11T19:51:55.467Z,101248.53
2022-10-11T19:54:58.001Z,101250.13
2022-10-11T19:58:03.406Z,101251.03
2022-10-11T20:01:12.152Z,101255.03
2022-10-11T20:04:33.098Z,101249.28
2022-10-11T20:07:37.119Z,101249.97
2022-10-11T20:10:39.733Z,101258.59
2022-10-11T20:13:42.255Z,101256.50
2022-10-11T20:16:44.657Z,101258.53
2022-10-11T20:19:47.029Z,101252.41
2022-10-11T20:22:49.437Z,101257.69
2022-10-11T20:26:02.018Z,101252.06
2022-10-11T20:29:04.535Z,101247.72
2022-10-11T20:32:06.880Z,101260.81
2022-10-11T20:35:10.444Z,101251.84
2022-10-11T20:38:12.816Z,101249.50
2022-10-11T20:41:18.675Z,101252.66
2022-10-11T20:44:21.035Z,101252.56
2022-10-11T20:47:23.361Z,101250.78
2022-10-11T20:50:25.750Z,101258.13
2022-10-11T20:53:29.366Z,101253.78
2022-10-11T20:56:32.412Z,101250.25
2022-10-11T20:59:34.751Z,101244.69
2022-10-11T21:02:38.020Z,101247.03
2022-10-11T21:05:40.951Z,101243.84
2022-10-11T21:08:43.375Z,101241.97
2022-10-11T21:11:46.027Z,101243.41
2022-10-11T21:14:48.477Z,101244.41
2022-10-11T21:17:51.420Z,101242.38
2022-10-11T21:20:53.804Z,101239.91
2022-10-11T21:24:01.511Z,101244.16
2022-10-11T21:27:03.864Z,101251.41
2022-10-11T21:30:06.680Z,101241.88
2022-10-11T21:33:09.100Z,101241.78
2022-10-11T21:36:17.614Z,101235.34
2022-10-11T21:39:20.057Z,101229.19
2022-10-11T21:42:27.136Z,101229.81
2022-10-11T21:45:31.687Z,101229.13
2022-10-11T21:48:34.232Z,101227.97
2022-10-11T21:51:36.668Z,101230.25
2022-10-11T21:54:39.255Z,101229.28
2022-10-11T21:57:42.867Z,101228.91
2022-10-11T22:00:46.907Z,101226.97
2022-10-11T22:03:49.476Z,101223.44
2022-10-11T22:06:51.855Z,101230.03
2022-10-11T22:09:54.309Z,101235.34
2022-10-11T22:12:56.978Z,101235.97
2022-10-11T22:16:06.985Z,101236.91
2022-10-11T22:19:09.459Z,101232.41
2022-10-11T22:22:11.870Z,101235.38
2022-10-11T22:25:14.261Z,101238.78
2022-10-11T22:28:16.665Z,101246.16
2022-10-11T22:31:20.321Z,101237.47
2022-10-11T22:34:22.782Z,101238.38
2022-10-11T22:37:25.127Z,101236.88
2022-10-11T22:40:27.548Z,101235.63
2022-10-11T22:43:30.065Z,101229.53
2022-10-11T22:46:32.459Z,101228.28
2022-10-11T22:49:34.950Z,101233.16
2022-10-11T22:52:37.442Z,101230.25
2022-10-11T22:55:40.314Z,101227.47
2022-10-11T22:58:42.696Z,101233.16
2022-10-11T23:01:45.043Z,101229.34
2022-10-11T23:04:47.879Z,101232.63
2022-10-11T23:07:50.568Z,101236.41
2022-10-11T23:10:53.337Z,101236.75
2022-10-11T23:13:55.693Z,101241.09
2022-10-11T23:16:58.092Z,101238.66
2022-10-11T23:20:00.617Z,101243.94
2022-10-11T23:23:02.971Z,101242.28
2022-10-11T23:26:12.141Z,101240.59
2022-10-11T23:29:14.539Z,101238.16
2022-10-11T23:32:16.980Z,101240.81
2022-10-11T23:35:19.358Z,101245.81
2022-10-11T23:38:21.954Z,101251.09
2022-10-11T23:41:26.839Z,101246.66
2022-10-11T23:44:29.198Z,101250.63
2022-10-11T23:47:31.683Z,101251.09
2022-10-11T23:50:34.739Z,101259.75
2022-10-11T23:53:37.521Z,101258.28
2022-10-11T23:56:40.017Z,101261.59
2022-10-11T23:59:42.355Z,101268.25
